Greenbrae, Nevada
Current Conditions -  °F | °C
As of 9:55 PM on Saturday 22 Nov 2014 (Local Time) from KRNO Reporting Station
Scattered Clouds Scattered Clouds  
Wind Chill: 35°   Ceiling: Unl
Heat Index: 39°   Visibility: 10mi
Dew Point: 27°   Wind: 6mph
Humidity: 62%   Direction: 20°NNE
Pressure: 30.23"   Gusts: NA
Location:  39.5386°N, 119.749°W
Report Text: KRNO 230555Z 02005KT 10SM SCT055 SCT180 04/M03 A3023 RMK AO2 SLP217 60000 T00391028 10106 20039 51022
Loading
Personal Weather Stations






























Interactive Weather Map New forecast layout! Learn more

10-Day Weather Forecast

Advertisements
Track Severe Weather on mobile